createdAt,value
2018-07-11T00:01:18.998Z,8.63
2018-07-11T00:03:50.549Z,2.50
2018-07-11T00:06:20.210Z,2.93
2018-07-11T00:08:48.502Z,2.43
2018-07-11T00:11:16.788Z,2.73
2018-07-11T00:13:46.069Z,2.73
2018-07-11T00:16:15.049Z,3.10
2018-07-11T00:18:43.357Z,4.30
2018-07-11T00:21:11.615Z,3.27
2018-07-11T00:23:39.935Z,2.97
2018-07-11T00:26:09.430Z,2.90
2018-07-11T00:28:37.792Z,3.60
2018-07-11T00:31:06.211Z,2.27
2018-07-11T00:33:34.538Z,2.77
2018-07-11T00:36:02.874Z,2.87
2018-07-11T00:38:31.264Z,3.20
2018-07-11T00:40:59.903Z,3.00
2018-07-11T00:43:30.328Z,3.27
2018-07-11T00:45:58.810Z,3.30
2018-07-11T00:48:27.087Z,3.13
2018-07-11T00:50:55.764Z,4.40
2018-07-11T00:53:24.052Z,4.87
2018-07-11T00:55:52.327Z,5.63
2018-07-11T00:58:26.450Z,3.63
2018-07-11T01:01:06.277Z,3.37
2018-07-11T01:03:42.574Z,5.63
2018-07-11T01:06:11.002Z,5.50
2018-07-11T01:08:40.643Z,5.33
2018-07-11T01:11:13.290Z,3.40
2018-07-11T01:13:43.102Z,3.53
2018-07-11T01:16:12.103Z,3.50
2018-07-11T01:18:59.879Z,4.23
2018-07-11T01:21:28.755Z,4.17
2018-07-11T01:23:57.190Z,3.73
2018-07-11T01:26:36.255Z,3.93
2018-07-11T01:29:05.024Z,3.63
2018-07-11T01:31:33.335Z,2.97
2018-07-11T01:34:01.650Z,5.40
2018-07-11T01:36:30.591Z,4.10
2018-07-11T01:38:59.685Z,4.37
2018-07-11T01:41:28.068Z,3.80
2018-07-11T01:43:56.362Z,4.53
2018-07-11T01:46:25.810Z,4.10
2018-07-11T01:48:54.185Z,3.70
2018-07-11T01:51:32.685Z,4.23
2018-07-11T01:54:00.938Z,5.73
2018-07-11T01:56:29.231Z,6.07
2018-07-11T01:58:57.639Z,5.23
2018-07-11T02:01:25.960Z,4.60
2018-07-11T02:03:54.310Z,7.40
2018-07-11T02:06:22.600Z,5.40
2018-07-11T02:08:51.199Z,4.70
2018-07-11T02:11:19.478Z,6.57
2018-07-11T02:13:47.824Z,5.37
2018-07-11T02:16:16.188Z,5.83
2018-07-11T02:18:44.514Z,5.47
2018-07-11T02:21:12.805Z,6.60
2018-07-11T02:23:41.164Z,5.20
2018-07-11T02:26:10.483Z,6.67
2018-07-11T02:28:38.764Z,5.87
2018-07-11T02:31:06.817Z,5.70
2018-07-11T02:33:35.127Z,5.40
2018-07-11T02:36:03.480Z,7.23
2018-07-11T02:38:31.571Z,5.20
2018-07-11T02:41:00.836Z,8.37
2018-07-11T02:43:29.182Z,5.00
2018-07-11T02:45:57.508Z,7.97
2018-07-11T02:48:25.856Z,8.60
2018-07-11T02:50:54.244Z,6.70
2018-07-11T02:53:23.964Z,4.97
2018-07-11T02:55:52.968Z,6.47
2018-07-11T02:58:21.281Z,5.67
2018-07-11T03:00:50.132Z,6.07
2018-07-11T03:03:18.483Z,4.53
2018-07-11T03:05:46.820Z,5.60
2018-07-11T03:08:16.015Z,4.53
2018-07-11T03:10:44.292Z,3.90
2018-07-11T03:13:12.563Z,3.80
2018-07-11T03:15:40.841Z,6.00
2018-07-11T03:18:09.143Z,4.00
2018-07-11T03:20:37.484Z,4.03
2018-07-11T03:23:05.918Z,3.80
2018-07-11T04:41:32.269Z,5.43
2018-07-11T04:44:00.622Z,6.03
2018-07-11T04:46:28.869Z,6.27
2018-07-11T04:48:57.976Z,5.93
2018-07-11T04:51:26.270Z,5.73
2018-07-11T04:53:54.957Z,7.30
2018-07-11T04:56:23.230Z,5.20
2018-07-11T04:58:51.534Z,4.90
2018-07-11T05:01:19.893Z,8.07
2018-07-11T05:03:48.152Z,6.47
2018-07-11T05:06:16.449Z,5.93
2018-07-11T05:08:44.809Z,5.63
2018-07-11T05:11:13.173Z,5.73
2018-07-11T05:13:41.463Z,11.07
2018-07-11T05:16:09.827Z,5.50
2018-07-11T05:18:38.134Z,6.87
2018-07-11T05:21:06.484Z,7.07
2018-07-11T05:23:34.863Z,5.27
2018-07-11T05:26:03.206Z,3.70
2018-07-11T05:28:31.475Z,5.27
2018-07-11T05:30:59.837Z,7.40
2018-07-11T05:33:28.217Z,6.33
2018-07-11T05:35:56.508Z,5.03
2018-07-11T05:38:24.836Z,3.67
2018-07-11T05:40:53.178Z,2.97
2018-07-11T05:43:21.529Z,3.77
2018-07-11T05:45:49.816Z,5.03
2018-07-11T05:48:18.238Z,5.13
2018-07-11T05:50:46.468Z,3.87
2018-07-11T05:53:14.842Z,4.93
2018-07-11T05:55:43.135Z,4.07
2018-07-11T05:58:11.490Z,4.58
2018-07-11T06:00:39.827Z,2.77
2018-07-11T06:03:08.280Z,2.25
2018-07-11T06:05:36.696Z,2.72
2018-07-11T06:08:05.002Z,3.67
2018-07-11T06:10:33.302Z,3.33
2018-07-11T06:13:01.727Z,2.52
2018-07-11T06:15:30.077Z,4.12
2018-07-11T06:17:59.464Z,5.30
2018-07-11T06:20:27.851Z,4.53
2018-07-11T06:22:56.289Z,5.37
2018-07-11T06:25:24.586Z,2.95
2018-07-11T06:27:52.929Z,2.40
2018-07-11T06:30:21.278Z,2.45
2018-07-11T06:32:49.623Z,1.72
2018-07-11T06:35:17.946Z,2.30
2018-07-11T06:37:46.331Z,1.98
2018-07-11T06:40:14.679Z,2.98
2018-07-11T06:42:43.083Z,3.47
2018-07-11T06:45:11.511Z,2.40
2018-07-11T06:47:39.787Z,3.22
2018-07-11T06:50:08.059Z,2.17
2018-07-11T06:52:36.402Z,2.58
2018-07-11T06:55:04.843Z,4.75
2018-07-11T06:57:33.311Z,2.58
2018-07-11T07:00:01.601Z,1.80
2018-07-11T07:02:29.901Z,1.85
2018-07-11T07:04:58.267Z,2.52
2018-07-11T07:07:27.595Z,2.55
2018-07-11T07:09:55.942Z,3.80
2018-07-11T07:12:24.333Z,2.75
2018-07-11T07:14:52.696Z,1.65
2018-07-11T07:17:21.032Z,3.12
2018-07-11T07:19:49.481Z,1.95
2018-07-11T07:22:17.927Z,1.40
2018-07-11T07:24:46.191Z,2.67
2018-07-11T07:27:14.307Z,1.10
2018-07-11T07:29:42.695Z,3.27
2018-07-11T07:32:11.039Z,4.00
2018-07-11T07:34:39.370Z,1.42
2018-07-11T07:37:07.686Z,1.42
2018-07-11T07:39:35.983Z,1.87
2018-07-11T07:42:04.360Z,1.10
2018-07-11T07:44:32.817Z,0.93
2018-07-11T07:47:01.768Z,1.05
2018-07-11T07:49:31.423Z,1.25
2018-07-11T07:52:00.026Z,1.52
2018-07-11T07:54:28.820Z,1.72
2018-07-11T07:56:57.176Z,1.70
2018-07-11T07:59:26.093Z,1.20
2018-07-11T08:01:54.500Z,1.30
2018-07-11T08:04:22.899Z,1.65
2018-07-11T08:06:52.100Z,1.52
2018-07-11T08:09:21.416Z,1.12
2018-07-11T08:11:49.821Z,1.47
2018-07-11T08:14:18.269Z,1.10
2018-07-11T08:16:46.868Z,2.62
2018-07-11T08:19:15.270Z,3.33
2018-07-11T08:21:43.758Z,1.15
2018-07-11T08:24:23.621Z,2.80
2018-07-11T08:27:19.509Z,2.83
2018-07-11T08:30:15.421Z,1.77
2018-07-11T08:33:08.993Z,1.25
2018-07-11T08:35:48.871Z,1.72
2018-07-11T08:38:33.516Z,1.47
2018-07-11T08:43:20.929Z,0.85
2018-07-11T08:46:02.164Z,1.90
2018-07-11T08:50:46.080Z,1.52
2018-07-11T08:56:37.907Z,1.95
2018-07-11T08:59:25.238Z,2.67
2018-07-11T09:02:07.836Z,1.50
2018-07-11T09:04:43.780Z,0.78
2018-07-11T09:07:24.448Z,1.02
2018-07-11T09:10:05.034Z,0.40
2018-07-11T09:12:49.610Z,0.75
2018-07-11T09:15:24.996Z,0.57
2018-07-11T09:18:04.770Z,1.60
2018-07-11T09:21:43.095Z,0.55
2018-07-11T09:24:18.792Z,0.68
2018-07-11T09:26:47.187Z,0.93
2018-07-11T09:29:15.459Z,2.05
2018-07-11T09:31:43.893Z,1.72
2018-07-11T09:34:12.319Z,2.20
2018-07-11T09:36:40.691Z,1.50
2018-07-11T09:39:09.039Z,0.75
2018-07-11T09:41:37.396Z,1.45
2018-07-11T09:44:05.809Z,1.20
2018-07-11T09:46:34.157Z,0.75
2018-07-11T09:49:02.477Z,0.50
2018-07-11T09:51:30.811Z,1.30
2018-07-11T09:53:59.158Z,0.60
2018-07-11T09:56:27.462Z,1.20
2018-07-11T09:58:57.111Z,0.47
2018-07-11T10:01:27.068Z,0.50
2018-07-11T10:03:56.696Z,0.50
2018-07-11T10:06:26.091Z,0.40
2018-07-11T10:08:54.791Z,0.80
2018-07-11T10:11:22.862Z,0.50
2018-07-11T10:13:51.335Z,1.62
2018-07-11T10:16:19.669Z,0.53
2018-07-11T10:19:01.152Z,0.75
2018-07-11T10:21:30.248Z,1.07
2018-07-11T10:23:59.753Z,0.50
2018-07-11T10:26:28.173Z,0.78
2018-07-11T10:28:58.504Z,0.70
2018-07-11T10:31:28.125Z,0.40
2018-07-11T10:33:56.488Z,0.65
2018-07-11T10:36:24.817Z,0.60
2018-07-11T10:38:53.228Z,1.17
2018-07-11T10:41:21.575Z,0.60
2018-07-11T10:43:50.077Z,0.37
2018-07-11T10:46:18.496Z,0.80
2018-07-11T10:48:46.919Z,0.60
2018-07-11T10:51:15.465Z,0.65
2018-07-11T10:53:43.755Z,0.50
2018-07-11T10:56:12.077Z,0.68
2018-07-11T10:59:43.223Z,0.65
2018-07-11T11:02:13.983Z,0.75
2018-07-11T11:04:42.575Z,0.70
2018-07-11T11:07:10.905Z,0.60
2018-07-11T11:09:39.204Z,0.90
2018-07-11T11:12:07.567Z,0.98
2018-07-11T11:14:36.066Z,0.55
2018-07-11T11:17:04.455Z,0.53
2018-07-11T11:19:32.803Z,1.87
2018-07-11T11:22:01.461Z,0.72
2018-07-11T11:24:29.523Z,0.68
2018-07-11T11:26:57.900Z,0.70
2018-07-11T11:29:26.293Z,0.70
2018-07-11T11:31:55.685Z,0.53
2018-07-11T11:34:24.000Z,1.40
2018-07-11T11:36:52.476Z,0.68
2018-07-11T11:39:20.972Z,1.42
2018-07-11T11:41:49.428Z,1.70
2018-07-11T11:44:17.701Z,0.70
2018-07-11T11:46:45.982Z,1.25
2018-07-11T11:49:14.276Z,1.00
2018-07-11T11:51:42.708Z,1.57
2018-07-11T11:54:11.022Z,0.80
2018-07-11T11:56:39.372Z,0.90
2018-07-11T11:59:07.683Z,0.82
2018-07-11T12:01:36.095Z,1.40
2018-07-11T12:04:04.491Z,2.42
2018-07-11T12:06:32.861Z,1.05
2018-07-11T12:09:01.223Z,0.70
2018-07-11T12:11:29.560Z,3.70
2018-07-11T12:13:57.998Z,1.05
2018-07-11T12:16:26.352Z,1.82
2018-07-11T12:18:54.715Z,0.68
2018-07-11T12:21:22.960Z,0.70
2018-07-11T12:23:51.488Z,1.10
2018-07-11T12:26:19.960Z,0.70
2018-07-11T12:28:48.384Z,2.12
2018-07-11T12:31:16.767Z,0.80
2018-07-11T12:33:45.123Z,1.00
2018-07-11T12:36:13.539Z,1.22
2018-07-11T12:38:41.888Z,1.05
2018-07-11T12:41:10.245Z,1.10
2018-07-11T12:43:38.655Z,0.70
2018-07-11T12:46:07.029Z,0.85
2018-07-11T12:48:40.922Z,0.78
2018-07-11T12:51:09.287Z,1.50
2018-07-11T12:53:37.666Z,1.10
2018-07-11T12:56:06.062Z,1.50
2018-07-11T12:58:34.473Z,0.80
2018-07-11T13:01:03.277Z,1.85
2018-07-11T13:03:31.724Z,1.37
2018-07-11T13:06:00.125Z,1.12
2018-07-11T13:08:28.552Z,2.90
2018-07-11T13:10:56.852Z,1.10
2018-07-11T13:13:25.288Z,1.27
2018-07-11T13:15:53.395Z,1.15
2018-07-11T13:18:21.801Z,1.35
2018-07-11T13:20:50.145Z,1.27
2018-07-11T13:23:18.543Z,0.70
2018-07-11T13:25:46.918Z,0.62
2018-07-11T13:28:15.259Z,1.15
2018-07-11T13:30:43.594Z,1.82
2018-07-11T13:33:12.070Z,1.57
2018-07-11T13:35:40.444Z,1.55
2018-07-11T13:38:11.458Z,1.57
2018-07-11T13:40:39.744Z,0.93
2018-07-11T13:43:08.180Z,1.27
2018-07-11T13:45:36.504Z,4.00
2018-07-11T13:48:04.881Z,1.10
2018-07-11T13:50:34.016Z,2.87
2018-07-11T13:53:02.794Z,1.10
2018-07-11T13:55:31.932Z,1.65
2018-07-11T13:58:01.557Z,2.02
2018-07-11T14:00:30.134Z,1.22
2018-07-11T14:02:58.433Z,0.95
2018-07-11T14:05:26.803Z,1.17
2018-07-11T14:07:55.272Z,1.20
2018-07-11T14:10:23.583Z,0.80
2018-07-11T14:12:52.010Z,1.07
2018-07-11T14:15:20.376Z,1.22
2018-07-11T14:17:49.801Z,0.88
2018-07-11T14:20:18.230Z,2.20
2018-07-11T14:22:47.284Z,1.62
2018-07-11T14:25:15.848Z,0.85
2018-07-11T14:27:46.568Z,0.65
2018-07-11T14:30:14.920Z,1.35
2018-07-11T14:32:51.424Z,0.82
2018-07-11T14:35:20.043Z,2.55
2018-07-11T14:37:49.367Z,4.12
2018-07-11T14:40:18.031Z,3.52
2018-07-11T14:42:46.813Z,2.85
2018-07-11T14:45:15.657Z,2.40
2018-07-11T14:47:49.455Z,2.57
2018-07-11T14:50:18.194Z,3.33
2018-07-11T14:52:46.947Z,3.77
2018-07-11T14:55:15.367Z,2.60
2018-07-11T14:57:43.565Z,2.37
2018-07-11T15:00:11.944Z,2.07
2018-07-11T15:02:40.261Z,5.50
2018-07-11T15:05:08.653Z,1.50
2018-07-11T15:07:37.013Z,5.37
2018-07-11T15:10:05.539Z,2.47
2018-07-11T15:12:36.020Z,2.63
2018-07-11T15:15:04.310Z,2.43
2018-07-11T15:17:33.159Z,2.20
2018-07-11T15:20:01.614Z,2.87
2018-07-11T15:22:29.729Z,2.62
2018-07-11T15:24:58.385Z,1.72
2018-07-11T15:27:27.293Z,2.17
2018-07-11T15:29:56.465Z,2.45
2018-07-11T15:32:24.804Z,3.08
2018-07-11T15:34:53.547Z,1.70
2018-07-11T15:37:21.660Z,1.92
2018-07-11T15:39:50.227Z,3.27
2018-07-11T15:42:18.634Z,1.57
2018-07-11T15:44:47.000Z,1.60
2018-07-11T15:47:15.388Z,1.55
2018-07-11T15:49:43.760Z,1.57
2018-07-11T15:52:12.138Z,1.80
2018-07-11T15:54:40.590Z,3.33
2018-07-11T15:57:08.831Z,1.63
2018-07-11T15:59:44.853Z,1.87
2018-07-11T16:02:13.105Z,1.50
2018-07-11T16:04:41.579Z,2.80
2018-07-11T16:07:10.405Z,1.67
2018-07-11T16:09:50.795Z,1.40
2018-07-11T16:12:19.121Z,1.55
2018-07-11T16:14:47.524Z,1.63
2018-07-11T16:17:15.872Z,1.30
2018-07-11T16:19:44.159Z,1.55
2018-07-11T16:22:12.507Z,1.82
2018-07-11T16:24:40.886Z,1.32
2018-07-11T16:27:09.315Z,1.42
2018-07-11T16:29:37.708Z,1.55
2018-07-11T16:32:06.638Z,1.25
2018-07-11T16:34:35.224Z,2.10
2018-07-11T16:37:03.311Z,1.95
2018-07-11T16:39:31.652Z,2.08
2018-07-11T16:42:00.771Z,2.00
2018-07-11T16:44:29.255Z,1.72
2018-07-11T16:46:57.325Z,1.90
2018-07-11T16:49:25.632Z,1.70
2018-07-11T16:51:54.235Z,2.20
2018-07-11T16:54:22.672Z,2.02
2018-07-11T16:56:50.972Z,1.62
2018-07-11T16:59:19.353Z,2.20
2018-07-11T17:01:52.488Z,2.35
2018-07-11T17:04:22.328Z,3.47
2018-07-11T17:06:52.332Z,2.12
2018-07-11T17:09:20.667Z,1.85
2018-07-11T17:11:51.239Z,2.42
2018-07-11T17:14:21.204Z,4.65
2018-07-11T17:17:04.816Z,2.70
2018-07-11T17:19:38.233Z,1.10
2018-07-11T17:22:07.317Z,1.60
2018-07-11T17:24:43.293Z,2.47
2018-07-11T17:27:13.252Z,1.42
2018-07-11T17:29:41.733Z,1.98
2018-07-11T17:32:11.508Z,1.80
2018-07-11T17:34:40.581Z,1.45
2018-07-11T17:37:10.233Z,1.82
2018-07-11T17:39:56.409Z,1.95
2018-07-11T17:42:27.100Z,1.50
2018-07-11T17:45:10.913Z,1.27
2018-07-11T17:49:59.300Z,2.72
2018-07-11T17:52:28.660Z,1.02
2018-07-11T17:55:07.614Z,2.02
2018-07-11T17:57:42.559Z,1.37
2018-07-11T18:00:10.944Z,1.98
2018-07-11T18:02:48.998Z,1.75
2018-07-11T18:05:25.026Z,3.47
2018-07-11T18:07:53.547Z,5.80
2018-07-11T18:10:56.542Z,2.20
2018-07-11T18:13:31.776Z,1.42
2018-07-11T18:16:30.957Z,1.90
2018-07-11T18:21:12.555Z,2.22
2018-07-11T18:24:17.804Z,1.92
2018-07-11T18:29:00.822Z,2.00
2018-07-11T18:31:39.205Z,1.87
2018-07-11T18:34:52.295Z,1.60
2018-07-11T18:38:31.704Z,1.45
2018-07-11T18:43:13.813Z,1.60
2018-07-11T18:47:59.644Z,1.50
2018-07-11T18:50:43.298Z,2.10
2018-07-11T18:53:20.821Z,1.77
2018-07-11T18:55:56.103Z,2.77
2018-07-11T18:58:38.939Z,3.30
2018-07-11T19:01:19.988Z,2.35
2018-07-11T19:05:59.574Z,1.60
2018-07-11T19:09:38.507Z,2.00
2018-07-11T19:12:15.892Z,1.63
2018-07-11T19:14:55.708Z,1.73
2018-07-11T19:17:32.217Z,2.03
2018-07-11T19:20:26.087Z,1.80
2018-07-11T19:23:04.812Z,2.03
2018-07-11T19:25:46.937Z,2.40
2018-07-11T19:28:21.497Z,1.70
2018-07-11T19:30:57.453Z,2.93
2018-07-11T19:33:52.069Z,2.53
2018-07-11T19:37:03.898Z,2.30
2018-07-11T19:39:45.504Z,2.30
2018-07-11T19:45:29.951Z,2.50
2018-07-11T19:48:09.438Z,2.97
2018-07-11T19:50:57.190Z,2.60
2018-07-11T19:54:04.998Z,2.40
2018-07-11T19:56:39.566Z,4.23
2018-07-11T19:59:07.897Z,3.13
2018-07-11T20:01:36.315Z,2.40
2018-07-11T20:04:04.727Z,2.33
2018-07-11T20:06:33.122Z,3.27
2018-07-11T20:09:01.528Z,3.83
2018-07-11T20:11:29.953Z,2.80
2018-07-11T20:13:58.666Z,3.13
2018-07-11T20:16:27.173Z,3.23
2018-07-11T20:18:55.532Z,3.10
2018-07-11T20:21:24.182Z,3.80
2018-07-11T20:23:52.623Z,3.53
2018-07-11T20:26:21.550Z,3.23
2018-07-11T20:28:51.118Z,3.87
2018-07-11T20:31:23.855Z,3.90
2018-07-11T20:33:52.197Z,6.43
2018-07-11T20:36:20.506Z,4.63
2018-07-11T20:38:48.889Z,3.60
2018-07-11T20:41:17.305Z,3.00
2018-07-11T20:43:46.292Z,2.57
2018-07-11T20:46:14.654Z,2.53
2018-07-11T20:48:43.002Z,2.20
2018-07-11T20:51:11.254Z,2.73
2018-07-11T20:53:39.660Z,2.17
2018-07-11T20:56:07.926Z,1.93
2018-07-11T20:58:41.493Z,1.90
2018-07-11T21:01:21.007Z,2.03
2018-07-11T21:07:06.688Z,2.07
2018-07-11T21:09:54.162Z,1.67
2018-07-11T21:13:03.264Z,2.63
2018-07-11T21:15:42.975Z,2.33
2018-07-11T21:18:25.653Z,1.77
2018-07-11T21:20:53.993Z,2.90
2018-07-11T21:23:22.321Z,2.13
2018-07-11T21:25:50.622Z,3.17
2018-07-11T21:28:18.900Z,3.33
2018-07-11T21:30:47.189Z,5.83
2018-07-11T21:33:15.498Z,3.23
2018-07-11T21:35:43.895Z,4.10
2018-07-11T21:38:12.203Z,3.63
2018-07-11T21:59:37.870Z,3.57
2018-07-11T22:02:06.144Z,3.70
2018-07-11T22:04:34.433Z,4.27
2018-07-11T22:07:02.823Z,5.73
2018-07-11T22:09:31.168Z,4.77
2018-07-11T22:11:59.464Z,2.90
2018-07-11T22:14:27.716Z,2.97
2018-07-11T22:16:56.591Z,2.73
2018-07-11T22:19:32.810Z,4.30
2018-07-11T22:22:00.103Z,3.00
2018-07-11T22:24:27.385Z,2.27
2018-07-11T22:26:54.671Z,2.53
2018-07-11T22:29:21.947Z,3.37
2018-07-11T22:31:49.215Z,4.10
2018-07-11T22:34:16.538Z,3.30
2018-07-11T22:36:43.842Z,3.17
2018-07-11T22:39:11.129Z,2.80
2018-07-11T22:41:38.438Z,2.93
2018-07-11T22:44:05.719Z,2.17
2018-07-11T22:46:33.013Z,2.63
2018-07-11T22:49:00.274Z,2.93
2018-07-11T22:51:27.551Z,4.40
2018-07-11T22:53:54.855Z,3.87
2018-07-11T22:56:22.138Z,4.17
2018-07-11T22:58:50.845Z,5.73
2018-07-11T23:01:18.130Z,4.13
2018-07-11T23:03:45.402Z,3.00
2018-07-11T23:06:12.934Z,3.70
2018-07-11T23:08:40.217Z,5.30
2018-07-11T23:11:07.496Z,3.47
2018-07-11T23:13:34.752Z,4.00
2018-07-11T23:16:02.045Z,4.00
2018-07-11T23:18:29.348Z,4.13
2018-07-11T23:20:56.599Z,3.30
2018-07-11T23:23:24.123Z,4.30
2018-07-11T23:25:51.414Z,3.63
2018-07-11T23:28:18.715Z,3.60
2018-07-11T23:30:46.007Z,5.03
2018-07-11T23:33:13.319Z,4.17
2018-07-11T23:35:40.619Z,4.80
2018-07-11T23:38:07.924Z,4.90
2018-07-11T23:40:35.206Z,5.60
2018-07-11T23:43:02.507Z,6.17
2018-07-11T23:45:29.871Z,3.90
2018-07-11T23:47:57.147Z,3.80
2018-07-11T23:50:24.453Z,4.70
2018-07-11T23:52:51.722Z,7.03
2018-07-11T23:55:19.927Z,4.37
2018-07-11T23:57:47.246Z,4.17
